EDDKEDDR

Guest
Details From EDDK - Koln Bonn
To EDDR - Saarbrucken
Flight Number -
Tags decoded
Created
Modified
Stats Distance 159 nm / 295 km
Max Altitude 0 ft / 0 m
Waypoints 3
Social Downloads 0
Likes 0
Share VATSIM

Download

Looking for another format? Having issues loading an existing format? Contact us
Advertisement - Login to hide

Notes

Requested: EDDK EDRY EDDR

Route

EDDK EDRY EDDR

ID Type Via Altitude Latitude Longitude Leg Dist Tot Dist Heading (true) Name
O EDDK APT - 0 ft / 0 m 50.86580˚ 7.13890˚ - 0 nm - Koln Bonn
EDRY APT - 0 ft / 0 m 49.30307˚ 8.45065˚ 106 nm 106 nm 151° / 152° Speyer
O EDDR APT - 0 ft / 0 m 49.21534˚ 7.11261˚ 52 nm 159 nm 265° / 264° Saarbrucken

Altitude Profile

Advertisement - Login to hide

EDDK

Details ICAO EDDK (CGN)
Name Koln Bonn
Region Germany - Civil
Timezone Europe/Berlin (UTC+2.0)
Stats Elevation 302 ft / 92 m (AMSL)
Location 50.865801° 7.138903°
Runways 3
Magnetic Variation 1.989° E

METAR

EDDK 270150Z 17004KT 140V200 CAVOK 16/13 Q1018 NOSIG

Decode

TAF

TAF EDDK 262300Z 2700/2806 10004KT CAVOK PROB40 TEMPO 2713/2716 20010KT TSRAGR BKN045CB PROB30 TEMPO 2719/2722 TSRA BKN040CB

Decode

Departure Runways

ID Width Length Bearing (true) Bearing (mag) Surface Threshold Offset Overrun Length
06 148 ft / 45 m 8,047 ft / 2,453 m 64.33° 62.34° Concrete 0 ft / 0 m 197 ft / 60 m
14L 197 ft / 60 m 12,497 ft / 3,809 m 137.55° 135.56° Asphalt 0 ft / 0 m 197 ft / 60 m
14R 148 ft / 45 m 6,102 ft / 1,860 m 137.54° 135.55° Asphalt 0 ft / 0 m 197 ft / 60 m
24 148 ft / 45 m 8,047 ft / 2,453 m 244.36° 242.37° Concrete 0 ft / 0 m 197 ft / 60 m
32L 148 ft / 45 m 6,102 ft / 1,860 m 317.56° 315.57° Asphalt 0 ft / 0 m 197 ft / 60 m
32R 197 ft / 60 m 12,497 ft / 3,809 m 317.58° 315.59° Asphalt 0 ft / 0 m 197 ft / 60 m

EDDR

Details ICAO EDDR (SCN)
Name Saarbrucken
Region Germany - Civil
Timezone Europe/Berlin (UTC+2.0)
Stats Elevation 1,057 ft / 322 m (AMSL)
Location 49.215343° 7.112610°
Runways 2
Magnetic Variation 2.011° E

METAR

EDDR 270150Z 05006KT 030V090 CAVOK 17/14 Q1018

Decode

TAF

TAF EDDR 262300Z 2700/2724 06004KT CAVOK PROB40 TEMPO 2712/2716 21015G25KT 3000 TSRAGR BKN040CB

Decode

Destination Runways

ID Width Length Bearing (true) Bearing (mag) Surface Threshold Offset Overrun Length
09 148 ft / 45 m 6,450 ft / 1,966 m 87.38° 85.37° Asphalt 85 ft / 26 m 0 ft / 0 m
09L 164 ft / 50 m 1,784 ft / 544 m 87.10° 85.09° Grass 0 ft / 0 m 0 ft / 0 m
27 148 ft / 45 m 6,450 ft / 1,966 m 267.40° 265.39° Asphalt 0 ft / 0 m 0 ft / 0 m
27R 164 ft / 50 m 1,784 ft / 544 m 267.10° 265.09° Grass 0 ft / 0 m 0 ft / 0 m

Approach Navaids

Runway Type Ident Frequency Range Bearing (true) Bearing (mag) Slope Elevation
27 Localiser DSB 108.70 MHz 25 nm / 46 km 267.37° 265.36° - 1,021 ft / 311 m (AMSL)
27 Glidescope DSB 108.70 MHz 10 nm / 19 km 267.39° 265.38° 3.00° 1,056 ft / 322 m (AMSL)

Popular Alternatives